createdAt,value
2023-09-17T00:00:21.124Z,70.45
2023-09-17T00:02:47.967Z,71.04
2023-09-17T00:05:14.758Z,72.96
2023-09-17T00:07:42.924Z,72.79
2023-09-17T00:10:10.274Z,71.88
2023-09-17T00:12:37.048Z,71.63
2023-09-17T00:15:04.070Z,70.79
2023-09-17T00:17:31.177Z,70.25
2023-09-17T00:19:57.973Z,70.22
2023-09-17T00:22:25.483Z,71.27
2023-09-17T00:24:52.176Z,72.04
2023-09-17T00:27:18.982Z,71.76
2023-09-17T00:29:45.601Z,71.11
2023-09-17T00:32:12.438Z,70.56
2023-09-17T00:34:39.220Z,69.63
2023-09-17T00:37:05.922Z,71.36
2023-09-17T00:39:32.640Z,71.49
2023-09-17T00:41:59.795Z,72.02
2023-09-17T00:44:26.614Z,72.44
2023-09-17T00:46:53.554Z,72.74
2023-09-17T00:49:20.756Z,71.53
2023-09-17T00:51:47.803Z,72.60
2023-09-17T00:54:14.856Z,74.86
2023-09-17T00:56:41.900Z,73.87
2023-09-17T00:59:08.716Z,72.76
2023-09-17T01:01:36.403Z,71.69
2023-09-17T01:04:05.244Z,71.81
2023-09-17T01:06:32.249Z,73.20
2023-09-17T01:08:59.448Z,73.33
2023-09-17T01:11:26.606Z,72.74
2023-09-17T01:13:59.978Z,73.32
2023-09-17T01:16:27.928Z,73.37
2023-09-17T01:18:55.343Z,74.90
2023-09-17T01:21:31.033Z,75.40
2023-09-17T01:24:24.697Z,74.95
2023-09-17T01:27:19.693Z,72.99
2023-09-17T01:29:47.842Z,72.91
2023-09-17T01:32:16.171Z,72.21
2023-09-17T01:34:44.816Z,71.56
2023-09-17T01:37:33.924Z,70.96
2023-09-17T01:40:06.507Z,69.76
2023-09-17T01:42:34.947Z,69.79
2023-09-17T01:45:03.509Z,69.94
2023-09-17T01:47:31.665Z,69.65
2023-09-17T01:49:59.676Z,71.20
2023-09-17T01:52:28.019Z,72.35
2023-09-17T01:54:54.845Z,72.81
2023-09-17T01:57:21.530Z,72.38
2023-09-17T01:59:48.243Z,74.35
2023-09-17T02:02:15.009Z,75.66
2023-09-17T02:04:41.778Z,77.01
2023-09-17T02:07:08.617Z,74.92
2023-09-17T02:09:35.251Z,75.33
2023-09-17T02:12:01.939Z,75.35
2023-09-17T02:14:29.210Z,75.56
2023-09-17T02:16:56.544Z,72.54
2023-09-17T02:19:23.803Z,73.92
2023-09-17T02:21:51.422Z,73.39
2023-09-17T02:24:18.024Z,70.68
2023-09-17T02:26:45.545Z,69.72
2023-09-17T02:29:12.390Z,70.44
2023-09-17T02:31:39.238Z,71.98
2023-09-17T02:34:06.032Z,73.46
2023-09-17T02:36:33.139Z,71.08
2023-09-17T02:39:00.340Z,70.88
2023-09-17T02:41:27.165Z,72.22
2023-09-17T02:43:54.027Z,73.07
2023-09-17T02:46:22.141Z,74.02
2023-09-17T02:48:49.037Z,73.32
2023-09-17T02:51:16.415Z,73.44
2023-09-17T02:53:43.451Z,73.20
2023-09-17T02:56:10.138Z,73.28
2023-09-17T02:58:36.886Z,72.55
2023-09-17T03:01:16.865Z,70.48
2023-09-17T03:03:43.598Z,70.41
2023-09-17T03:06:11.715Z,70.65
2023-09-17T03:08:42.779Z,71.21
2023-09-17T03:11:14.958Z,69.80
2023-09-17T03:13:48.844Z,67.87
2023-09-17T03:16:20.030Z,68.27
2023-09-17T03:18:46.924Z,70.49
2023-09-17T03:21:13.794Z,68.38
2023-09-17T03:23:40.473Z,67.98
2023-09-17T03:26:10.244Z,68.15
2023-09-17T03:28:36.990Z,68.77
2023-09-17T03:31:05.325Z,68.72
2023-09-17T03:33:32.566Z,68.54
2023-09-17T03:36:00.331Z,68.35
2023-09-17T03:38:27.168Z,69.24
2023-09-17T03:40:54.180Z,69.55
2023-09-17T03:43:21.233Z,69.76
2023-09-17T03:45:48.566Z,70.19
2023-09-17T03:48:15.250Z,69.50
2023-09-17T03:50:43.887Z,69.18
2023-09-17T03:53:11.453Z,68.96
2023-09-17T03:55:39.163Z,68.03
2023-09-17T04:28:56.460Z,75.96
2023-09-17T04:31:23.509Z,76.97
2023-09-17T04:33:50.680Z,75.99
2023-09-17T04:36:17.498Z,75.70
2023-09-17T04:38:44.158Z,74.07
2023-09-17T04:41:10.866Z,75.65
2023-09-17T04:43:38.066Z,75.51
2023-09-17T04:46:05.311Z,75.99
2023-09-17T04:48:34.272Z,75.30
2023-09-17T04:51:00.941Z,74.15
2023-09-17T04:53:27.650Z,72.61
2023-09-17T04:55:55.431Z,72.74
2023-09-17T04:58:26.545Z,72.56
2023-09-17T05:00:56.545Z,72.49
2023-09-17T05:03:24.552Z,71.37
2023-09-17T05:05:52.161Z,72.28
2023-09-17T05:08:19.625Z,72.76
2023-09-17T05:10:47.002Z,73.23
2023-09-17T05:13:13.791Z,73.88
2023-09-17T05:15:40.468Z,72.67
2023-09-17T05:18:10.767Z,74.94
2023-09-17T05:20:44.942Z,73.38
2023-09-17T05:23:14.871Z,72.73
2023-09-17T05:25:41.920Z,72.03
2023-09-17T05:28:10.596Z,73.14
2023-09-17T05:30:38.535Z,73.11
2023-09-17T05:33:05.848Z,71.47
2023-09-17T05:35:33.522Z,70.44
2023-09-17T05:38:00.300Z,69.85
2023-09-17T05:40:27.363Z,69.82
2023-09-17T05:42:54.293Z,68.22
2023-09-17T05:45:20.989Z,68.65
2023-09-17T05:47:47.797Z,69.02
2023-09-17T05:50:14.560Z,69.30
2023-09-17T05:52:41.469Z,68.27
2023-09-17T05:55:09.176Z,66.86
2023-09-17T05:57:36.032Z,67.70
2023-09-17T06:00:05.709Z,67.93
2023-09-17T06:02:41.178Z,68.11
2023-09-17T06:05:08.700Z,69.02
2023-09-17T06:07:35.659Z,68.52
2023-09-17T06:10:02.485Z,68.82
2023-09-17T06:12:30.361Z,68.79
2023-09-17T06:14:57.273Z,67.02
2023-09-17T06:17:24.185Z,67.57
2023-09-17T06:19:52.037Z,69.34
2023-09-17T06:22:18.752Z,70.36
2023-09-17T06:24:45.893Z,70.68
2023-09-17T06:27:12.516Z,69.89
2023-09-17T06:29:39.313Z,70.33
2023-09-17T06:32:06.356Z,70.69
2023-09-17T06:34:34.091Z,72.58
2023-09-17T06:37:01.020Z,71.97
2023-09-17T06:39:27.858Z,69.96
2023-09-17T06:41:54.665Z,70.33
2023-09-17T06:44:21.446Z,69.32
2023-09-17T06:46:48.271Z,70.55
2023-09-17T06:49:15.066Z,70.50
2023-09-17T06:51:41.834Z,69.54
2023-09-17T06:54:08.696Z,70.80
2023-09-17T06:56:35.417Z,69.80
2023-09-17T06:59:02.161Z,68.70
2023-09-17T07:01:28.939Z,68.54
2023-09-17T07:03:55.639Z,68.92
2023-09-17T07:06:22.756Z,68.35
2023-09-17T07:08:49.426Z,69.08
2023-09-17T07:11:16.079Z,69.16
2023-09-17T07:13:42.716Z,69.51
2023-09-17T07:16:09.530Z,69.21
2023-09-17T07:18:36.164Z,69.36
2023-09-17T07:21:02.913Z,70.25
2023-09-17T07:23:31.138Z,71.10
2023-09-17T07:25:57.920Z,69.34
2023-09-17T07:28:24.689Z,68.45
2023-09-17T07:30:56.169Z,68.79
2023-09-17T07:33:23.470Z,68.50
2023-09-17T07:35:50.267Z,69.83
2023-09-17T07:38:17.230Z,70.50
2023-09-17T07:40:44.170Z,70.47
2023-09-17T07:43:10.932Z,69.73
2023-09-17T07:45:37.666Z,68.99
2023-09-17T07:48:04.759Z,69.53
2023-09-17T07:50:31.750Z,68.38
2023-09-17T07:52:58.576Z,68.36
2023-09-17T07:55:25.338Z,68.58
2023-09-17T07:57:52.248Z,69.30
2023-09-17T08:00:19.160Z,69.54
2023-09-17T08:02:46.491Z,67.98
2023-09-17T08:05:13.791Z,68.58
2023-09-17T08:07:43.216Z,69.08
2023-09-17T08:10:10.661Z,67.61
2023-09-17T08:12:37.389Z,68.23
2023-09-17T08:15:04.591Z,67.99
2023-09-17T08:17:31.365Z,70.16
2023-09-17T08:19:59.767Z,69.82
2023-09-17T08:22:28.482Z,70.97
2023-09-17T08:25:11.425Z,69.84
2023-09-17T08:27:58.081Z,69.63
2023-09-17T08:30:45.125Z,67.82
2023-09-17T08:33:32.389Z,67.78
2023-09-17T08:36:10.338Z,67.20
2023-09-17T08:38:37.257Z,65.85
2023-09-17T08:41:06.353Z,67.76
2023-09-17T08:43:33.289Z,69.23
2023-09-17T08:46:01.820Z,69.49
2023-09-17T08:48:28.506Z,68.86
2023-09-17T08:50:57.097Z,68.58
2023-09-17T08:53:32.003Z,67.27
2023-09-17T08:56:00.289Z,67.54
2023-09-17T08:58:32.790Z,67.62
2023-09-17T09:01:04.448Z,67.11
2023-09-17T09:03:34.770Z,62.58
2023-09-17T09:06:04.759Z,63.41
2023-09-17T09:08:32.228Z,61.72
2023-09-17T09:11:00.944Z,62.21
2023-09-17T09:13:29.495Z,61.87
2023-09-17T09:15:57.959Z,63.58
2023-09-17T09:18:25.568Z,63.94
2023-09-17T09:20:52.271Z,63.62
2023-09-17T09:23:18.993Z,63.72
2023-09-17T09:25:45.646Z,62.03
2023-09-17T09:28:12.378Z,62.63
2023-09-17T09:30:38.992Z,62.23
2023-09-17T09:33:06.097Z,62.79
2023-09-17T09:35:32.858Z,63.13
2023-09-17T09:38:02.482Z,63.59
2023-09-17T09:40:29.657Z,63.86
2023-09-17T09:42:57.919Z,60.89
2023-09-17T09:45:24.656Z,62.69
2023-09-17T09:47:53.055Z,62.81
2023-09-17T09:50:28.058Z,62.86
2023-09-17T09:52:56.201Z,63.01
2023-09-17T09:55:25.187Z,63.54
2023-09-17T09:57:54.911Z,60.31
2023-09-17T10:00:28.407Z,60.55
2023-09-17T10:02:55.922Z,58.81
2023-09-17T10:05:35.572Z,61.48
2023-09-17T10:08:05.801Z,62.64
2023-09-17T10:10:33.077Z,62.96
2023-09-17T10:13:02.109Z,62.72
2023-09-17T10:15:28.881Z,58.98
2023-09-17T10:17:57.258Z,61.71
2023-09-17T10:20:27.168Z,60.67
2023-09-17T10:22:55.599Z,62.14
2023-09-17T10:25:24.437Z,63.16
2023-09-17T10:27:53.113Z,61.36
2023-09-17T10:30:19.903Z,61.04
2023-09-17T10:32:48.931Z,61.39
2023-09-17T10:35:15.636Z,61.14
2023-09-17T10:37:43.833Z,61.08
2023-09-17T10:40:11.590Z,59.29
2023-09-17T10:42:39.696Z,61.98
2023-09-17T10:45:11.706Z,60.58
2023-09-17T10:47:42.162Z,62.53
2023-09-17T10:50:14.303Z,61.38
2023-09-17T10:52:41.298Z,60.78
2023-09-17T10:55:08.736Z,61.75
2023-09-17T10:57:40.356Z,62.58
2023-09-17T11:00:19.986Z,60.84
2023-09-17T11:02:51.919Z,61.04
2023-09-17T11:05:21.349Z,60.71
2023-09-17T11:07:49.150Z,61.86
2023-09-17T11:10:29.392Z,61.89
2023-09-17T11:12:59.224Z,59.64
2023-09-17T11:15:26.233Z,58.37
2023-09-17T11:18:00.767Z,60.83
2023-09-17T11:20:27.932Z,60.32
2023-09-17T11:22:54.612Z,58.49
2023-09-17T11:25:35.834Z,57.52
2023-09-17T11:28:13.846Z,58.16
2023-09-17T11:31:00.678Z,55.25
2023-09-17T11:33:27.848Z,58.74
2023-09-17T11:35:56.170Z,57.34
2023-09-17T11:38:27.354Z,54.90
2023-09-17T11:41:10.045Z,52.83
2023-09-17T11:43:44.301Z,56.16
2023-09-17T11:46:12.861Z,57.77
2023-09-17T11:48:40.450Z,56.24
2023-09-17T11:51:22.227Z,55.42
2023-09-17T11:54:08.861Z,55.15
2023-09-17T11:56:37.841Z,59.58
2023-09-17T11:59:10.407Z,56.65
2023-09-17T12:01:45.624Z,55.40
2023-09-17T12:04:13.053Z,53.90
2023-09-17T12:06:42.554Z,56.29
2023-09-17T12:09:22.973Z,57.64
2023-09-17T12:11:49.943Z,56.45
2023-09-17T12:14:17.730Z,57.35
2023-09-17T12:16:47.394Z,55.58
2023-09-17T12:19:18.331Z,56.08
2023-09-17T12:21:51.993Z,55.66
2023-09-17T12:24:35.550Z,57.30
2023-09-17T12:27:34.261Z,55.66
2023-09-17T12:30:00.988Z,52.95
2023-09-17T12:32:31.539Z,54.68
2023-09-17T12:34:58.641Z,57.67
2023-09-17T12:37:29.281Z,56.88
2023-09-17T12:39:56.013Z,57.03
2023-09-17T12:42:22.854Z,56.11
2023-09-17T12:44:50.596Z,57.13
2023-09-17T12:47:18.232Z,57.38
2023-09-17T12:49:45.381Z,56.38
2023-09-17T12:52:13.256Z,56.92
2023-09-17T12:54:41.082Z,56.83
2023-09-17T12:57:08.148Z,57.43
2023-09-17T12:59:40.546Z,57.82
2023-09-17T13:02:09.622Z,58.33
2023-09-17T13:04:44.697Z,56.21
2023-09-17T13:07:21.689Z,56.00
2023-09-17T13:09:50.486Z,57.44
2023-09-17T13:12:25.819Z,56.22
2023-09-17T13:14:53.607Z,58.73
2023-09-17T13:17:21.403Z,57.99
2023-09-17T13:19:49.077Z,56.83
2023-09-17T13:22:16.665Z,56.72
2023-09-17T13:24:45.533Z,55.82
2023-09-17T13:27:12.365Z,55.96
2023-09-17T13:29:41.307Z,55.23
2023-09-17T13:32:12.731Z,56.92
2023-09-17T13:34:42.706Z,55.72
2023-09-17T13:37:10.535Z,55.82
2023-09-17T13:39:45.365Z,54.92
2023-09-17T13:42:12.975Z,53.30
2023-09-17T13:44:39.654Z,55.73
2023-09-17T13:47:12.226Z,56.86
2023-09-17T13:49:41.694Z,56.13
2023-09-17T13:52:09.717Z,55.91
2023-09-17T13:54:39.740Z,54.53
2023-09-17T13:57:06.668Z,56.79
2023-09-17T13:59:33.337Z,56.27
2023-09-17T14:02:00.025Z,51.12
2023-09-17T14:04:27.000Z,54.25
2023-09-17T14:06:55.726Z,55.03
2023-09-17T14:09:23.661Z,56.97
2023-09-17T14:11:50.510Z,55.04
2023-09-17T14:14:17.243Z,56.28
2023-09-17T14:16:45.396Z,54.49
2023-09-17T14:19:17.829Z,54.04
2023-09-17T14:21:45.861Z,55.76
2023-09-17T14:24:12.462Z,57.00
2023-09-17T14:26:39.170Z,56.17
2023-09-17T14:29:05.949Z,55.28
2023-09-17T14:31:32.705Z,55.12
2023-09-17T14:33:59.309Z,57.50
2023-09-17T14:36:25.938Z,54.18
2023-09-17T14:38:52.957Z,54.70
2023-09-17T14:41:19.883Z,54.50
2023-09-17T14:43:46.588Z,53.71
2023-09-17T14:46:13.763Z,55.37
2023-09-17T14:48:40.457Z,57.36
2023-09-17T14:51:07.106Z,56.63
2023-09-17T14:53:33.737Z,54.93
2023-09-17T14:56:00.483Z,53.25
2023-09-17T14:58:27.076Z,55.70
2023-09-17T15:00:53.737Z,53.06
2023-09-17T15:03:20.599Z,55.01
2023-09-17T15:05:47.898Z,53.00
2023-09-17T15:08:14.682Z,53.51
2023-09-17T15:10:43.302Z,54.41
2023-09-17T15:13:10.560Z,54.52
2023-09-17T15:15:37.184Z,55.18
2023-09-17T15:18:04.181Z,55.82
2023-09-17T15:20:31.273Z,56.87
2023-09-17T15:22:58.328Z,54.61
2023-09-17T15:25:25.050Z,51.96
2023-09-17T15:27:51.705Z,55.44
2023-09-17T15:30:18.841Z,51.91
2023-09-17T15:32:46.095Z,54.26
2023-09-17T15:35:18.156Z,54.35
2023-09-17T15:37:47.815Z,52.90
2023-09-17T15:40:14.830Z,55.85
2023-09-17T15:42:46.762Z,55.02
2023-09-17T15:45:13.729Z,53.26
2023-09-17T15:47:41.548Z,55.32
2023-09-17T15:50:09.571Z,55.98
2023-09-17T15:52:36.303Z,54.70
2023-09-17T15:55:04.455Z,51.29
2023-09-17T15:57:31.138Z,55.23
2023-09-17T15:59:57.909Z,54.39
2023-09-17T16:02:24.692Z,55.32
2023-09-17T16:04:51.568Z,55.04
2023-09-17T16:07:18.222Z,55.29
2023-09-17T16:09:44.856Z,54.12
2023-09-17T16:12:11.780Z,53.59
2023-09-17T16:14:39.113Z,55.15
2023-09-17T16:17:05.747Z,52.46
2023-09-17T16:19:32.654Z,54.57
2023-09-17T16:21:59.303Z,55.30
2023-09-17T16:24:26.061Z,55.32
2023-09-17T16:26:52.700Z,55.22
2023-09-17T16:29:19.405Z,55.26
2023-09-17T16:31:46.158Z,55.85
2023-09-17T16:34:12.942Z,56.02
2023-09-17T16:36:41.008Z,54.46
2023-09-17T16:39:07.652Z,55.16
2023-09-17T16:41:34.276Z,55.27
2023-09-17T16:44:01.025Z,56.70
2023-09-17T16:46:27.763Z,56.33
2023-09-17T16:48:54.452Z,57.04
2023-09-17T16:51:21.093Z,56.68
2023-09-17T16:53:47.819Z,57.90
2023-09-17T16:56:14.473Z,57.12
2023-09-17T16:58:41.229Z,58.39
2023-09-17T17:01:07.949Z,59.49
2023-09-17T17:03:34.705Z,59.75
2023-09-17T17:06:01.450Z,60.47
2023-09-17T17:08:29.273Z,60.60
2023-09-17T17:10:57.772Z,60.70
2023-09-17T17:13:24.573Z,60.52
2023-09-17T17:15:51.327Z,60.73
2023-09-17T17:18:18.699Z,60.81
2023-09-17T17:20:45.331Z,61.55
2023-09-17T17:23:12.025Z,61.41
2023-09-17T17:25:39.499Z,61.81
2023-09-17T17:28:06.255Z,61.69
2023-09-17T17:30:32.935Z,62.29
2023-09-17T17:32:59.690Z,62.05
2023-09-17T17:35:26.851Z,62.07
2023-09-17T17:37:53.585Z,61.71
2023-09-17T17:40:23.695Z,61.99
2023-09-17T17:42:51.103Z,62.73
2023-09-17T17:45:17.904Z,62.42
2023-09-17T17:47:44.897Z,63.08
2023-09-17T17:50:14.605Z,63.18
2023-09-17T17:52:42.155Z,63.86
2023-09-17T17:55:09.827Z,62.94
2023-09-17T17:57:36.965Z,62.72
2023-09-17T18:00:06.861Z,63.11
2023-09-17T18:02:40.102Z,62.66
2023-09-17T18:05:07.855Z,62.80
2023-09-17T18:07:35.044Z,62.70
2023-09-17T18:10:07.707Z,63.27
2023-09-17T18:12:35.233Z,63.49
2023-09-17T18:15:03.196Z,63.17
2023-09-17T18:17:31.447Z,63.28
2023-09-17T18:19:58.454Z,63.84
2023-09-17T18:22:25.116Z,63.17
2023-09-17T18:24:51.806Z,64.14
2023-09-17T18:27:18.577Z,63.31
2023-09-17T18:29:45.496Z,64.09
2023-09-17T18:32:12.156Z,63.35
2023-09-17T18:34:38.860Z,63.98
2023-09-17T18:37:07.286Z,64.21
2023-09-17T18:39:34.033Z,63.94
2023-09-17T18:42:01.133Z,64.03
2023-09-17T18:44:29.914Z,63.62
2023-09-17T18:46:57.135Z,64.73
2023-09-17T18:49:23.807Z,63.99
2023-09-17T18:51:50.458Z,62.28
2023-09-17T18:54:17.396Z,63.30
2023-09-17T18:56:45.025Z,63.44
2023-09-17T18:59:12.028Z,63.46
2023-09-17T19:01:40.793Z,63.62
2023-09-17T19:04:10.373Z,64.66
2023-09-17T19:06:37.156Z,65.10
2023-09-17T19:09:07.200Z,64.96
2023-09-17T19:11:34.641Z,62.84
2023-09-17T19:14:01.456Z,63.92
2023-09-17T19:16:28.873Z,64.30
2023-09-17T19:18:56.745Z,64.73
2023-09-17T19:21:25.468Z,63.89
2023-09-17T19:23:53.401Z,62.64
2023-09-17T19:26:20.964Z,63.53
2023-09-17T19:28:48.042Z,64.89
2023-09-17T19:31:14.929Z,64.88
2023-09-17T19:33:41.662Z,64.72
2023-09-17T19:36:08.305Z,65.35
2023-09-17T19:38:35.747Z,63.80
2023-09-17T19:41:03.312Z,64.25
2023-09-17T19:43:30.009Z,63.74
2023-09-17T19:45:58.073Z,65.44
2023-09-17T19:48:25.663Z,65.79
2023-09-17T19:50:52.977Z,65.94
2023-09-17T19:53:20.483Z,64.52
2023-09-17T19:55:47.843Z,63.94
2023-09-17T19:58:14.672Z,63.81
2023-09-17T20:00:42.725Z,64.72
2023-09-17T20:03:09.650Z,64.03
2023-09-17T20:05:36.604Z,64.97
2023-09-17T20:08:08.375Z,64.36
2023-09-17T20:10:37.856Z,64.52
2023-09-17T20:13:05.111Z,64.53
2023-09-17T20:15:31.895Z,64.89
2023-09-17T20:17:59.382Z,63.48
2023-09-17T20:20:31.400Z,63.90
2023-09-17T20:22:58.174Z,64.52
2023-09-17T20:25:24.820Z,63.87
2023-09-17T20:27:53.296Z,63.72
2023-09-17T20:30:19.840Z,65.37
2023-09-17T20:32:46.502Z,65.64
2023-09-17T20:35:13.215Z,65.94
2023-09-17T20:37:39.813Z,66.63
2023-09-17T20:40:06.802Z,66.67
2023-09-17T20:42:33.609Z,66.41
2023-09-17T20:45:00.433Z,66.81
2023-09-17T20:47:29.373Z,66.63
2023-09-17T20:49:56.293Z,67.47
2023-09-17T20:52:23.095Z,66.74
2023-09-17T20:54:49.597Z,66.67
2023-09-17T20:57:17.474Z,67.15
2023-09-17T20:59:43.959Z,67.09
2023-09-17T21:02:10.730Z,66.77
2023-09-17T21:04:37.616Z,67.96
2023-09-17T21:07:04.184Z,67.36
2023-09-17T21:09:34.238Z,66.87
2023-09-17T21:12:00.835Z,67.72
2023-09-17T21:14:27.952Z,68.36
2023-09-17T21:16:54.616Z,67.63
2023-09-17T21:19:21.129Z,68.01
2023-09-17T21:21:47.716Z,69.52
2023-09-17T21:24:14.211Z,69.40
2023-09-17T21:26:42.007Z,69.77
2023-09-17T21:29:08.876Z,69.76
2023-09-17T21:31:35.556Z,70.12
2023-09-17T21:34:02.134Z,69.61
2023-09-17T21:36:29.952Z,70.14
2023-09-17T21:38:56.493Z,69.80
2023-09-17T21:41:23.209Z,70.15
2023-09-17T21:43:50.355Z,69.38
2023-09-17T21:46:16.973Z,69.56
2023-09-17T21:48:43.532Z,70.67
2023-09-17T21:51:10.117Z,71.00
2023-09-17T21:53:36.605Z,69.79
2023-09-17T21:56:03.338Z,70.36
2023-09-17T21:58:29.886Z,70.21
2023-09-17T22:00:56.517Z,70.37
2023-09-17T22:03:23.170Z,71.33
2023-09-17T22:05:51.142Z,71.57
2023-09-17T22:08:21.982Z,70.86
2023-09-17T22:10:48.715Z,70.36
2023-09-17T22:13:16.764Z,70.04
2023-09-17T22:15:44.557Z,70.50
2023-09-17T22:18:11.302Z,69.98
2023-09-17T22:20:37.923Z,70.66
2023-09-17T22:23:04.481Z,69.31
2023-09-17T22:25:31.023Z,70.31
2023-09-17T22:27:57.576Z,69.50
2023-09-17T22:30:25.933Z,70.05
2023-09-17T22:32:52.495Z,70.76
2023-09-17T22:35:19.218Z,69.53
2023-09-17T22:37:45.763Z,69.36
2023-09-17T22:40:12.887Z,69.54
2023-09-17T22:42:39.471Z,69.39
2023-09-17T22:45:06.457Z,70.34
2023-09-17T22:47:34.072Z,69.94
2023-09-17T22:50:01.010Z,70.27
2023-09-17T22:52:27.781Z,71.53
2023-09-17T22:54:54.410Z,71.24
2023-09-17T22:57:21.000Z,70.90
2023-09-17T22:59:47.605Z,69.85
2023-09-17T23:02:14.223Z,70.45
2023-09-17T23:04:40.890Z,70.56
2023-09-17T23:07:07.392Z,71.14
2023-09-17T23:09:34.182Z,71.32
2023-09-17T23:12:00.705Z,71.41
2023-09-17T23:14:27.337Z,71.91
2023-09-17T23:16:53.916Z,72.25
2023-09-17T23:19:23.994Z,70.77
2023-09-17T23:21:53.708Z,70.25
2023-09-17T23:24:20.243Z,69.99
2023-09-17T23:26:46.829Z,71.24
2023-09-17T23:29:13.417Z,70.58
2023-09-17T23:31:41.148Z,71.37
2023-09-17T23:34:07.897Z,71.26
2023-09-17T23:36:37.205Z,71.13
2023-09-17T23:39:04.583Z,69.00
2023-09-17T23:41:31.455Z,69.79
2023-09-17T23:43:58.150Z,68.92
2023-09-17T23:46:24.795Z,68.89
2023-09-17T23:48:51.658Z,70.42
2023-09-17T23:51:18.603Z,68.21
2023-09-17T23:53:45.121Z,67.99
2023-09-17T23:56:11.710Z,67.75
2023-09-17T23:58:38.324Z,67.44
